Austin, Arkansas
Current Conditions -  °F | °C
As of 1:58 AM on Sunday 21 Dec 2014 (Local Time) from KLRF Reporting Station
Clear Clear  
Wind Chill: 31°   Ceiling: Unl
Heat Index: 31°   Visibility: 9mi
Dew Point: 30°   Wind: 0mph
Humidity: 96%   Direction: NA
Pressure: 30.21"   Gusts: NA
Location:  35°N, 91.98°W
Report Text: KLRF 210758Z AUTO 00000KT 9SM CLR 00/M01 A3021 RMK AO2 SLP235 T10031009
Loading
Personal Weather Stations






























Interactive Weather Map New forecast layout! Learn more

10-Day Weather Forecast

Advertisements
Track Severe Weather on mobile